sensor_id;sensor_type;location;lat;lon;timestamp;P1;durP1;ratioP1;P2;durP2;ratioP2
71771;SDS011;59606;52.138;5.424;2023-12-28T00:01:46;5.18;;;1.88;;
71771;SDS011;59606;52.138;5.424;2023-12-28T00:04:12;6.93;;;2.00;;
71771;SDS011;59606;52.138;5.424;2023-12-28T00:06:39;8.63;;;2.13;;
71771;SDS011;59606;52.138;5.424;2023-12-28T00:09:07;4.93;;;1.85;;
71771;SDS011;59606;52.138;5.424;2023-12-28T00:11:37;8.15;;;2.03;;
71771;SDS011;59606;52.138;5.424;2023-12-28T00:14:05;4.82;;;1.65;;
71771;SDS011;59606;52.138;5.424;2023-12-28T00:16:32;7.60;;;1.97;;
71771;SDS011;59606;52.138;5.424;2023-12-28T00:18:59;4.13;;;2.15;;
71771;SDS011;59606;52.138;5.424;2023-12-28T00:21:28;5.13;;;1.65;;
71771;SDS011;59606;52.138;5.424;2023-12-28T00:23:55;5.03;;;1.92;;
71771;SDS011;59606;52.138;5.424;2023-12-28T00:26:22;8.75;;;2.22;;
71771;SDS011;59606;52.138;5.424;2023-12-28T00:28:48;7.50;;;2.37;;
71771;SDS011;59606;52.138;5.424;2023-12-28T00:31:15;5.18;;;1.85;;
71771;SDS011;59606;52.138;5.424;2023-12-28T00:33:41;6.38;;;2.40;;
71771;SDS011;59606;52.138;5.424;2023-12-28T00:36:08;5.13;;;1.77;;
71771;SDS011;59606;52.138;5.424;2023-12-28T00:38:35;5.18;;;1.60;;
71771;SDS011;59606;52.138;5.424;2023-12-28T00:41:01;4.10;;;2.13;;
71771;SDS011;59606;52.138;5.424;2023-12-28T00:43:28;3.33;;;1.60;;
71771;SDS011;59606;52.138;5.424;2023-12-28T00:45:54;5.43;;;1.75;;
71771;SDS011;59606;52.138;5.424;2023-12-28T00:48:21;4.07;;;1.90;;
71771;SDS011;59606;52.138;5.424;2023-12-28T00:50:47;6.28;;;1.65;;
71771;SDS011;59606;52.138;5.424;2023-12-28T00:53:14;6.53;;;1.93;;
71771;SDS011;59606;52.138;5.424;2023-12-28T00:55:41;6.03;;;1.88;;
71771;SDS011;59606;52.138;5.424;2023-12-28T00:58:07;5.50;;;1.85;;
71771;SDS011;59606;52.138;5.424;2023-12-28T01:00:34;6.00;;;1.45;;
71771;SDS011;59606;52.138;5.424;2023-12-28T01:03:00;7.22;;;2.10;;
71771;SDS011;59606;52.138;5.424;2023-12-28T01:05:27;5.17;;;1.70;;
71771;SDS011;59606;52.138;5.424;2023-12-28T01:07:55;5.38;;;2.28;;
71771;SDS011;59606;52.138;5.424;2023-12-28T01:10:22;6.85;;;1.90;;
71771;SDS011;59606;52.138;5.424;2023-12-28T01:12:49;6.82;;;1.77;;
71771;SDS011;59606;52.138;5.424;2023-12-28T01:15:15;5.90;;;1.75;;
71771;SDS011;59606;52.138;5.424;2023-12-28T01:17:44;6.13;;;1.90;;
71771;SDS011;59606;52.138;5.424;2023-12-28T01:20:11;5.60;;;1.70;;
71771;SDS011;59606;52.138;5.424;2023-12-28T01:22:37;3.47;;;1.60;;
71771;SDS011;59606;52.138;5.424;2023-12-28T01:25:04;3.53;;;1.58;;
71771;SDS011;59606;52.138;5.424;2023-12-28T01:27:31;5.07;;;1.70;;
71771;SDS011;59606;52.138;5.424;2023-12-28T01:29:57;7.47;;;1.77;;
71771;SDS011;59606;52.138;5.424;2023-12-28T01:32:24;5.68;;;1.88;;
71771;SDS011;59606;52.138;5.424;2023-12-28T01:34:50;6.18;;;1.83;;
71771;SDS011;59606;52.138;5.424;2023-12-28T01:37:17;6.88;;;1.80;;
71771;SDS011;59606;52.138;5.424;2023-12-28T01:39:44;4.57;;;1.58;;
71771;SDS011;59606;52.138;5.424;2023-12-28T01:42:10;5.70;;;1.80;;
71771;SDS011;59606;52.138;5.424;2023-12-28T01:44:37;3.17;;;1.58;;
71771;SDS011;59606;52.138;5.424;2023-12-28T01:47:03;3.72;;;1.55;;
71771;SDS011;59606;52.138;5.424;2023-12-28T01:49:30;7.40;;;1.90;;
71771;SDS011;59606;52.138;5.424;2023-12-28T01:51:58;4.53;;;1.88;;
71771;SDS011;59606;52.138;5.424;2023-12-28T01:54:27;4.53;;;1.60;;
71771;SDS011;59606;52.138;5.424;2023-12-28T01:56:54;4.72;;;1.67;;
71771;SDS011;59606;52.138;5.424;2023-12-28T01:59:21;6.95;;;1.75;;
71771;SDS011;59606;52.138;5.424;2023-12-28T02:01:47;3.28;;;1.42;;
71771;SDS011;59606;52.138;5.424;2023-12-28T02:04:15;4.50;;;1.67;;
71771;SDS011;59606;52.138;5.424;2023-12-28T02:06:42;3.63;;;1.40;;
71771;SDS011;59606;52.138;5.424;2023-12-28T02:09:09;4.22;;;1.75;;
71771;SDS011;59606;52.138;5.424;2023-12-28T02:11:35;7.22;;;1.60;;
71771;SDS011;59606;52.138;5.424;2023-12-28T02:14:02;4.07;;;1.88;;
71771;SDS011;59606;52.138;5.424;2023-12-28T02:16:30;7.22;;;2.17;;
71771;SDS011;59606;52.138;5.424;2023-12-28T02:19:00;5.93;;;1.37;;
71771;SDS011;59606;52.138;5.424;2023-12-28T02:21:36;5.88;;;1.75;;
71771;SDS011;59606;52.138;5.424;2023-12-28T02:24:03;2.95;;;1.50;;
71771;SDS011;59606;52.138;5.424;2023-12-28T02:26:29;6.30;;;1.95;;
71771;SDS011;59606;52.138;5.424;2023-12-28T02:28:56;3.85;;;1.40;;
71771;SDS011;59606;52.138;5.424;2023-12-28T02:31:26;5.83;;;1.80;;
71771;SDS011;59606;52.138;5.424;2023-12-28T02:33:59;7.15;;;1.67;;
71771;SDS011;59606;52.138;5.424;2023-12-28T02:36:35;5.00;;;1.40;;
71771;SDS011;59606;52.138;5.424;2023-12-28T02:39:04;5.40;;;1.80;;
71771;SDS011;59606;52.138;5.424;2023-12-28T02:41:33;8.77;;;1.65;;
71771;SDS011;59606;52.138;5.424;2023-12-28T02:44:00;3.07;;;1.40;;
71771;SDS011;59606;52.138;5.424;2023-12-28T02:46:27;5.55;;;1.73;;
71771;SDS011;59606;52.138;5.424;2023-12-28T02:48:53;7.68;;;1.75;;
71771;SDS011;59606;52.138;5.424;2023-12-28T02:51:23;6.65;;;1.42;;
71771;SDS011;59606;52.138;5.424;2023-12-28T02:53:50;4.38;;;1.60;;
71771;SDS011;59606;52.138;5.424;2023-12-28T02:56:16;5.50;;;1.57;;
71771;SDS011;59606;52.138;5.424;2023-12-28T02:58:43;6.43;;;1.30;;
71771;SDS011;59606;52.138;5.424;2023-12-28T03:01:10;3.38;;;1.13;;
71771;SDS011;59606;52.138;5.424;2023-12-28T03:03:36;8.00;;;1.27;;
71771;SDS011;59606;52.138;5.424;2023-12-28T03:06:03;5.45;;;2.25;;
71771;SDS011;59606;52.138;5.424;2023-12-28T03:08:30;6.20;;;1.20;;
71771;SDS011;59606;52.138;5.424;2023-12-28T03:10:56;6.68;;;1.13;;
71771;SDS011;59606;52.138;5.424;2023-12-28T03:13:23;7.55;;;1.58;;
71771;SDS011;59606;52.138;5.424;2023-12-28T03:15:49;6.40;;;1.45;;
71771;SDS011;59606;52.138;5.424;2023-12-28T03:18:16;5.75;;;1.65;;
71771;SDS011;59606;52.138;5.424;2023-12-28T03:20:43;5.50;;;1.40;;
71771;SDS011;59606;52.138;5.424;2023-12-28T03:23:11;9.60;;;1.33;;
71771;SDS011;59606;52.138;5.424;2023-12-28T03:25:37;3.97;;;0.90;;
71771;SDS011;59606;52.138;5.424;2023-12-28T03:28:04;6.25;;;1.17;;
71771;SDS011;59606;52.138;5.424;2023-12-28T03:30:31;7.15;;;1.70;;
71771;SDS011;59606;52.138;5.424;2023-12-28T03:32:57;3.40;;;0.93;;
71771;SDS011;59606;52.138;5.424;2023-12-28T03:35:24;6.43;;;1.23;;
71771;SDS011;59606;52.138;5.424;2023-12-28T03:37:50;8.27;;;1.58;;
71771;SDS011;59606;52.138;5.424;2023-12-28T03:40:17;6.85;;;1.60;;
71771;SDS011;59606;52.138;5.424;2023-12-28T03:42:45;7.93;;;1.30;;
71771;SDS011;59606;52.138;5.424;2023-12-28T03:45:12;3.60;;;1.10;;
71771;SDS011;59606;52.138;5.424;2023-12-28T03:47:39;6.43;;;1.30;;
71771;SDS011;59606;52.138;5.424;2023-12-28T03:50:06;3.80;;;1.30;;
71771;SDS011;59606;52.138;5.424;2023-12-28T03:52:33;5.25;;;1.15;;
71771;SDS011;59606;52.138;5.424;2023-12-28T03:54:59;5.68;;;1.60;;
71771;SDS011;59606;52.138;5.424;2023-12-28T03:57:26;5.57;;;0.90;;
71771;SDS011;59606;52.138;5.424;2023-12-28T03:59:53;5.18;;;1.25;;
71771;SDS011;59606;52.138;5.424;2023-12-28T04:02:20;5.88;;;1.55;;
71771;SDS011;59606;52.138;5.424;2023-12-28T04:04:46;7.10;;;1.45;;
71771;SDS011;59606;52.138;5.424;2023-12-28T04:07:13;8.20;;;1.33;;
71771;SDS011;59606;52.138;5.424;2023-12-28T04:09:40;6.20;;;2.60;;
71771;SDS011;59606;52.138;5.424;2023-12-28T04:12:06;8.57;;;1.73;;
71771;SDS011;59606;52.138;5.424;2023-12-28T04:14:33;8.73;;;1.60;;
71771;SDS011;59606;52.138;5.424;2023-12-28T04:16:59;8.00;;;1.60;;
71771;SDS011;59606;52.138;5.424;2023-12-28T04:19:26;8.82;;;2.15;;
71771;SDS011;59606;52.138;5.424;2023-12-28T04:21:53;7.30;;;1.40;;
71771;SDS011;59606;52.138;5.424;2023-12-28T04:24:19;4.43;;;1.20;;
71771;SDS011;59606;52.138;5.424;2023-12-28T04:26:46;6.50;;;1.05;;
71771;SDS011;59606;52.138;5.424;2023-12-28T04:29:12;4.78;;;1.40;;
71771;SDS011;59606;52.138;5.424;2023-12-28T04:31:39;6.88;;;1.83;;
71771;SDS011;59606;52.138;5.424;2023-12-28T04:34:08;5.37;;;1.27;;
71771;SDS011;59606;52.138;5.424;2023-12-28T04:36:42;5.65;;;1.05;;
71771;SDS011;59606;52.138;5.424;2023-12-28T04:39:13;7.47;;;1.45;;
71771;SDS011;59606;52.138;5.424;2023-12-28T04:41:40;4.18;;;0.93;;
71771;SDS011;59606;52.138;5.424;2023-12-28T04:44:06;5.75;;;1.50;;
71771;SDS011;59606;52.138;5.424;2023-12-28T04:46:37;7.10;;;1.40;;
71771;SDS011;59606;52.138;5.424;2023-12-28T04:49:04;6.15;;;1.60;;
71771;SDS011;59606;52.138;5.424;2023-12-28T04:51:30;4.95;;;1.13;;
71771;SDS011;59606;52.138;5.424;2023-12-28T04:53:58;10.68;;;1.50;;
71771;SDS011;59606;52.138;5.424;2023-12-28T04:56:24;11.10;;;2.22;;
71771;SDS011;59606;52.138;5.424;2023-12-28T04:58:51;6.07;;;1.00;;
71771;SDS011;59606;52.138;5.424;2023-12-28T05:01:17;6.82;;;1.25;;
71771;SDS011;59606;52.138;5.424;2023-12-28T05:03:44;6.50;;;1.58;;
71771;SDS011;59606;52.138;5.424;2023-12-28T05:06:10;3.88;;;1.42;;
71771;SDS011;59606;52.138;5.424;2023-12-28T05:08:37;8.75;;;2.00;;
71771;SDS011;59606;52.138;5.424;2023-12-28T05:11:05;8.47;;;1.03;;
71771;SDS011;59606;52.138;5.424;2023-12-28T05:13:31;7.75;;;0.98;;
71771;SDS011;59606;52.138;5.424;2023-12-28T05:16:00;9.63;;;1.23;;
71771;SDS011;59606;52.138;5.424;2023-12-28T05:18:27;11.30;;;1.27;;
71771;SDS011;59606;52.138;5.424;2023-12-28T05:20:54;8.10;;;1.10;;
71771;SDS011;59606;52.138;5.424;2023-12-28T05:23:20;13.97;;;1.67;;
71771;SDS011;59606;52.138;5.424;2023-12-28T05:25:47;11.73;;;1.88;;
71771;SDS011;59606;52.138;5.424;2023-12-28T05:28:14;10.98;;;1.50;;
71771;SDS011;59606;52.138;5.424;2023-12-28T05:30:40;12.43;;;1.83;;
71771;SDS011;59606;52.138;5.424;2023-12-28T05:33:07;8.25;;;1.33;;
71771;SDS011;59606;52.138;5.424;2023-12-28T05:35:34;9.47;;;1.47;;
71771;SDS011;59606;52.138;5.424;2023-12-28T05:38:00;9.38;;;2.13;;
71771;SDS011;59606;52.138;5.424;2023-12-28T05:40:27;7.85;;;1.10;;
71771;SDS011;59606;52.138;5.424;2023-12-28T05:42:53;9.27;;;1.58;;
71771;SDS011;59606;52.138;5.424;2023-12-28T05:45:20;11.15;;;1.85;;
71771;SDS011;59606;52.138;5.424;2023-12-28T05:47:46;12.43;;;1.70;;
71771;SDS011;59606;52.138;5.424;2023-12-28T05:50:14;8.63;;;1.15;;
71771;SDS011;59606;52.138;5.424;2023-12-28T05:52:41;9.77;;;1.63;;
71771;SDS011;59606;52.138;5.424;2023-12-28T05:55:07;8.90;;;1.65;;
71771;SDS011;59606;52.138;5.424;2023-12-28T05:57:34;12.10;;;1.15;;
71771;SDS011;59606;52.138;5.424;2023-12-28T06:00:00;8.70;;;1.40;;
71771;SDS011;59606;52.138;5.424;2023-12-28T06:02:27;6.47;;;1.67;;
71771;SDS011;59606;52.138;5.424;2023-12-28T06:04:54;6.07;;;1.27;;
71771;SDS011;59606;52.138;5.424;2023-12-28T06:07:21;6.55;;;1.20;;
71771;SDS011;59606;52.138;5.424;2023-12-28T06:09:47;14.30;;;1.83;;
71771;SDS011;59606;52.138;5.424;2023-12-28T06:12:14;10.87;;;2.10;;
71771;SDS011;59606;52.138;5.424;2023-12-28T06:14:41;17.10;;;1.85;;
71771;SDS011;59606;52.138;5.424;2023-12-28T06:17:08;10.30;;;1.80;;
71771;SDS011;59606;52.138;5.424;2023-12-28T06:19:34;13.63;;;1.20;;
71771;SDS011;59606;52.138;5.424;2023-12-28T06:22:02;12.57;;;2.22;;
71771;SDS011;59606;52.138;5.424;2023-12-28T06:24:29;7.17;;;1.47;;
71771;SDS011;59606;52.138;5.424;2023-12-28T06:26:55;9.60;;;1.52;;
71771;SDS011;59606;52.138;5.424;2023-12-28T06:29:22;12.55;;;1.55;;
71771;SDS011;59606;52.138;5.424;2023-12-28T06:31:49;11.15;;;1.67;;
71771;SDS011;59606;52.138;5.424;2023-12-28T06:34:16;6.40;;;1.30;;
71771;SDS011;59606;52.138;5.424;2023-12-28T06:36:42;11.83;;;1.37;;
71771;SDS011;59606;52.138;5.424;2023-12-28T06:39:09;8.75;;;1.40;;
71771;SDS011;59606;52.138;5.424;2023-12-28T06:41:36;10.20;;;1.25;;
71771;SDS011;59606;52.138;5.424;2023-12-28T06:44:03;9.75;;;1.40;;
71771;SDS011;59606;52.138;5.424;2023-12-28T06:46:30;17.95;;;2.22;;
71771;SDS011;59606;52.138;5.424;2023-12-28T06:48:56;14.27;;;1.47;;
71771;SDS011;59606;52.138;5.424;2023-12-28T06:51:25;12.95;;;1.58;;
71771;SDS011;59606;52.138;5.424;2023-12-28T06:53:52;12.60;;;1.80;;
71771;SDS011;59606;52.138;5.424;2023-12-28T06:56:19;5.03;;;1.10;;
71771;SDS011;59606;52.138;5.424;2023-12-28T06:58:45;13.15;;;1.55;;
71771;SDS011;59606;52.138;5.424;2023-12-28T07:01:12;10.60;;;1.73;;
71771;SDS011;59606;52.138;5.424;2023-12-28T07:03:39;11.55;;;1.88;;
71771;SDS011;59606;52.138;5.424;2023-12-28T07:06:06;23.15;;;2.90;;
71771;SDS011;59606;52.138;5.424;2023-12-28T07:08:33;9.20;;;1.73;;
71771;SDS011;59606;52.138;5.424;2023-12-28T07:11:02;9.40;;;1.73;;
71771;SDS011;59606;52.138;5.424;2023-12-28T07:13:30;9.37;;;1.57;;
71771;SDS011;59606;52.138;5.424;2023-12-28T07:15:57;11.57;;;2.05;;
71771;SDS011;59606;52.138;5.424;2023-12-28T07:18:26;8.85;;;1.13;;
71771;SDS011;59606;52.138;5.424;2023-12-28T07:20:52;6.45;;;1.20;;
71771;SDS011;59606;52.138;5.424;2023-12-28T07:23:20;9.70;;;1.60;;
71771;SDS011;59606;52.138;5.424;2023-12-28T07:25:46;14.67;;;1.97;;
71771;SDS011;59606;52.138;5.424;2023-12-28T07:28:13;16.88;;;1.85;;
71771;SDS011;59606;52.138;5.424;2023-12-28T07:30:39;8.27;;;1.55;;
71771;SDS011;59606;52.138;5.424;2023-12-28T07:33:07;15.18;;;1.80;;
71771;SDS011;59606;52.138;5.424;2023-12-28T07:35:34;8.35;;;1.70;;
71771;SDS011;59606;52.138;5.424;2023-12-28T07:38:01;10.43;;;1.23;;
71771;SDS011;59606;52.138;5.424;2023-12-28T07:40:28;9.98;;;1.42;;
71771;SDS011;59606;52.138;5.424;2023-12-28T07:42:54;8.35;;;1.17;;
71771;SDS011;59606;52.138;5.424;2023-12-28T07:45:22;6.90;;;1.80;;
71771;SDS011;59606;52.138;5.424;2023-12-28T07:47:50;9.50;;;1.60;;
71771;SDS011;59606;52.138;5.424;2023-12-28T07:50:17;10.63;;;1.53;;
71771;SDS011;59606;52.138;5.424;2023-12-28T07:52:45;14.20;;;2.13;;
71771;SDS011;59606;52.138;5.424;2023-12-28T07:55:13;12.43;;;1.30;;
71771;SDS011;59606;52.138;5.424;2023-12-28T07:57:40;11.43;;;1.42;;
71771;SDS011;59606;52.138;5.424;2023-12-28T08:00:07;11.73;;;1.67;;
71771;SDS011;59606;52.138;5.424;2023-12-28T08:02:35;15.40;;;1.87;;
71771;SDS011;59606;52.138;5.424;2023-12-28T08:05:02;13.23;;;1.73;;
71771;SDS011;59606;52.138;5.424;2023-12-28T08:07:30;13.25;;;1.33;;
71771;SDS011;59606;52.138;5.424;2023-12-28T08:09:56;9.70;;;1.95;;
71771;SDS011;59606;52.138;5.424;2023-12-28T08:12:23;6.35;;;1.35;;
71771;SDS011;59606;52.138;5.424;2023-12-28T08:14:51;11.70;;;1.30;;
71771;SDS011;59606;52.138;5.424;2023-12-28T08:17:17;12.18;;;1.80;;
71771;SDS011;59606;52.138;5.424;2023-12-28T08:19:44;12.80;;;2.40;;
71771;SDS011;59606;52.138;5.424;2023-12-28T08:22:11;20.98;;;2.22;;
71771;SDS011;59606;52.138;5.424;2023-12-28T08:24:37;12.65;;;1.40;;
71771;SDS011;59606;52.138;5.424;2023-12-28T08:27:04;8.40;;;1.10;;
71771;SDS011;59606;52.138;5.424;2023-12-28T08:29:31;13.38;;;1.48;;
71771;SDS011;59606;52.138;5.424;2023-12-28T08:31:57;13.65;;;2.08;;
71771;SDS011;59606;52.138;5.424;2023-12-28T08:34:24;13.73;;;1.98;;
71771;SDS011;59606;52.138;5.424;2023-12-28T08:36:51;7.90;;;1.17;;
71771;SDS011;59606;52.138;5.424;2023-12-28T08:39:19;9.73;;;1.50;;
71771;SDS011;59606;52.138;5.424;2023-12-28T08:41:45;21.35;;;2.13;;
71771;SDS011;59606;52.138;5.424;2023-12-28T08:44:12;12.27;;;1.42;;
71771;SDS011;59606;52.138;5.424;2023-12-28T08:46:38;8.52;;;1.30;;
71771;SDS011;59606;52.138;5.424;2023-12-28T08:49:05;11.05;;;1.42;;
71771;SDS011;59606;52.138;5.424;2023-12-28T08:51:32;11.60;;;2.70;;
71771;SDS011;59606;52.138;5.424;2023-12-28T08:53:58;11.55;;;1.77;;
71771;SDS011;59606;52.138;5.424;2023-12-28T08:56:25;16.20;;;1.80;;
71771;SDS011;59606;52.138;5.424;2023-12-28T08:58:51;8.20;;;1.50;;
71771;SDS011;59606;52.138;5.424;2023-12-28T09:01:20;12.50;;;1.50;;
71771;SDS011;59606;52.138;5.424;2023-12-28T09:03:48;8.87;;;1.13;;
71771;SDS011;59606;52.138;5.424;2023-12-28T09:06:19;9.13;;;1.65;;
71771;SDS011;59606;52.138;5.424;2023-12-28T09:08:49;8.77;;;2.00;;
71771;SDS011;59606;52.138;5.424;2023-12-28T09:11:20;10.73;;;1.48;;
71771;SDS011;59606;52.138;5.424;2023-12-28T09:13:47;11.48;;;2.22;;
71771;SDS011;59606;52.138;5.424;2023-12-28T09:16:15;9.07;;;1.23;;
71771;SDS011;59606;52.138;5.424;2023-12-28T09:18:43;12.55;;;1.63;;
71771;SDS011;59606;52.138;5.424;2023-12-28T09:21:10;8.75;;;1.13;;
71771;SDS011;59606;52.138;5.424;2023-12-28T09:23:37;12.02;;;1.80;;
71771;SDS011;59606;52.138;5.424;2023-12-28T09:26:04;12.20;;;1.83;;
71771;SDS011;59606;52.138;5.424;2023-12-28T09:28:33;9.97;;;1.10;;
71771;SDS011;59606;52.138;5.424;2023-12-28T09:31:00;13.02;;;2.13;;
71771;SDS011;59606;52.138;5.424;2023-12-28T09:33:27;15.10;;;1.80;;
71771;SDS011;59606;52.138;5.424;2023-12-28T09:35:54;14.95;;;1.20;;
71771;SDS011;59606;52.138;5.424;2023-12-28T09:38:21;12.68;;;2.58;;
71771;SDS011;59606;52.138;5.424;2023-12-28T09:40:50;14.07;;;2.17;;
71771;SDS011;59606;52.138;5.424;2023-12-28T09:43:21;14.45;;;1.67;;
71771;SDS011;59606;52.138;5.424;2023-12-28T09:45:50;11.88;;;2.50;;
71771;SDS011;59606;52.138;5.424;2023-12-28T09:48:18;7.50;;;1.00;;
71771;SDS011;59606;52.138;5.424;2023-12-28T09:50:50;12.15;;;1.30;;
71771;SDS011;59606;52.138;5.424;2023-12-28T09:53:23;13.07;;;1.60;;
71771;SDS011;59606;52.138;5.424;2023-12-28T09:55:50;14.52;;;2.03;;
71771;SDS011;59606;52.138;5.424;2023-12-28T09:58:18;12.63;;;2.33;;
71771;SDS011;59606;52.138;5.424;2023-12-28T10:00:47;15.25;;;1.83;;
71771;SDS011;59606;52.138;5.424;2023-12-28T10:03:15;9.30;;;1.73;;
71771;SDS011;59606;52.138;5.424;2023-12-28T10:05:44;12.90;;;1.87;;
71771;SDS011;59606;52.138;5.424;2023-12-28T10:08:14;11.00;;;1.90;;
71771;SDS011;59606;52.138;5.424;2023-12-28T10:10:42;11.45;;;1.48;;
71771;SDS011;59606;52.138;5.424;2023-12-28T10:13:10;13.82;;;2.10;;
71771;SDS011;59606;52.138;5.424;2023-12-28T10:15:37;13.63;;;1.55;;
71771;SDS011;59606;52.138;5.424;2023-12-28T10:18:04;13.17;;;1.90;;
71771;SDS011;59606;52.138;5.424;2023-12-28T10:20:32;14.30;;;1.50;;
71771;SDS011;59606;52.138;5.424;2023-12-28T10:22:59;11.45;;;1.95;;
71771;SDS011;59606;52.138;5.424;2023-12-28T10:25:27;10.13;;;1.42;;
71771;SDS011;59606;52.138;5.424;2023-12-28T10:27:55;10.23;;;2.38;;
71771;SDS011;59606;52.138;5.424;2023-12-28T10:30:21;11.23;;;1.43;;
71771;SDS011;59606;52.138;5.424;2023-12-28T10:32:49;11.77;;;1.13;;
71771;SDS011;59606;52.138;5.424;2023-12-28T10:35:16;11.70;;;1.50;;
71771;SDS011;59606;52.138;5.424;2023-12-28T10:37:43;12.77;;;1.33;;
71771;SDS011;59606;52.138;5.424;2023-12-28T10:40:14;9.90;;;1.40;;
71771;SDS011;59606;52.138;5.424;2023-12-28T10:42:51;13.23;;;1.77;;
71771;SDS011;59606;52.138;5.424;2023-12-28T10:45:22;10.98;;;1.73;;
71771;SDS011;59606;52.138;5.424;2023-12-28T10:47:59;17.30;;;2.25;;
71771;SDS011;59606;52.138;5.424;2023-12-28T10:50:42;12.80;;;1.55;;
71771;SDS011;59606;52.138;5.424;2023-12-28T10:56:16;13.03;;;2.37;;
71771;SDS011;59606;52.138;5.424;2023-12-28T10:59:09;11.50;;;1.83;;
71771;SDS011;59606;52.138;5.424;2023-12-28T11:01:43;14.15;;;1.23;;
71771;SDS011;59606;52.138;5.424;2023-12-28T11:07:03;9.98;;;1.52;;
71771;SDS011;59606;52.138;5.424;2023-12-28T11:09:33;12.47;;;2.30;;
71771;SDS011;59606;52.138;5.424;2023-12-28T11:12:01;8.57;;;1.23;;
71771;SDS011;59606;52.138;5.424;2023-12-28T11:14:30;9.57;;;1.27;;
71771;SDS011;59606;52.138;5.424;2023-12-28T11:16:58;18.13;;;1.70;;
71771;SDS011;59606;52.138;5.424;2023-12-28T11:19:26;17.90;;;2.70;;
71771;SDS011;59606;52.138;5.424;2023-12-28T11:21:55;14.60;;;1.83;;
71771;SDS011;59606;52.138;5.424;2023-12-28T11:24:23;8.63;;;1.85;;
71771;SDS011;59606;52.138;5.424;2023-12-28T11:26:53;10.82;;;1.20;;
71771;SDS011;59606;52.138;5.424;2023-12-28T11:29:21;12.70;;;1.63;;
71771;SDS011;59606;52.138;5.424;2023-12-28T11:31:51;17.27;;;2.08;;
71771;SDS011;59606;52.138;5.424;2023-12-28T11:34:18;11.93;;;1.83;;
71771;SDS011;59606;52.138;5.424;2023-12-28T11:36:46;11.23;;;1.70;;
71771;SDS011;59606;52.138;5.424;2023-12-28T11:39:19;14.45;;;1.67;;
71771;SDS011;59606;52.138;5.424;2023-12-28T11:41:58;11.38;;;1.67;;
71771;SDS011;59606;52.138;5.424;2023-12-28T11:44:41;19.55;;;1.60;;
71771;SDS011;59606;52.138;5.424;2023-12-28T11:47:14;15.93;;;1.23;;
71771;SDS011;59606;52.138;5.424;2023-12-28T11:49:41;13.82;;;1.67;;
71771;SDS011;59606;52.138;5.424;2023-12-28T11:52:09;15.85;;;2.53;;
71771;SDS011;59606;52.138;5.424;2023-12-28T11:54:37;16.83;;;1.67;;
71771;SDS011;59606;52.138;5.424;2023-12-28T11:57:04;13.27;;;2.22;;
71771;SDS011;59606;52.138;5.424;2023-12-28T11:59:31;18.33;;;2.43;;
71771;SDS011;59606;52.138;5.424;2023-12-28T12:01:58;12.60;;;1.70;;
71771;SDS011;59606;52.138;5.424;2023-12-28T12:04:25;11.18;;;1.67;;
71771;SDS011;59606;52.138;5.424;2023-12-28T12:06:52;11.18;;;2.35;;
71771;SDS011;59606;52.138;5.424;2023-12-28T12:09:19;11.15;;;1.77;;
71771;SDS011;59606;52.138;5.424;2023-12-28T12:11:49;23.37;;;3.83;;
71771;SDS011;59606;52.138;5.424;2023-12-28T12:14:15;14.63;;;2.00;;
71771;SDS011;59606;52.138;5.424;2023-12-28T12:16:42;9.73;;;1.63;;
71771;SDS011;59606;52.138;5.424;2023-12-28T12:19:09;13.38;;;2.10;;
71771;SDS011;59606;52.138;5.424;2023-12-28T12:21:36;16.75;;;1.85;;
71771;SDS011;59606;52.138;5.424;2023-12-28T12:24:04;13.70;;;1.37;;
71771;SDS011;59606;52.138;5.424;2023-12-28T12:26:31;13.15;;;1.35;;
71771;SDS011;59606;52.138;5.424;2023-12-28T12:28:58;13.68;;;2.25;;
71771;SDS011;59606;52.138;5.424;2023-12-28T12:31:24;13.23;;;1.80;;
71771;SDS011;59606;52.138;5.424;2023-12-28T12:33:52;12.73;;;1.38;;
71771;SDS011;59606;52.138;5.424;2023-12-28T12:36:20;18.20;;;2.00;;
71771;SDS011;59606;52.138;5.424;2023-12-28T12:38:48;15.48;;;2.03;;
71771;SDS011;59606;52.138;5.424;2023-12-28T12:41:14;13.00;;;2.83;;
71771;SDS011;59606;52.138;5.424;2023-12-28T12:43:42;15.52;;;1.85;;
71771;SDS011;59606;52.138;5.424;2023-12-28T12:46:09;20.92;;;2.10;;
71771;SDS011;59606;52.138;5.424;2023-12-28T12:48:36;14.00;;;1.60;;
71771;SDS011;59606;52.138;5.424;2023-12-28T12:51:03;9.27;;;1.15;;
71771;SDS011;59606;52.138;5.424;2023-12-28T12:53:33;13.93;;;1.88;;
71771;SDS011;59606;52.138;5.424;2023-12-28T12:56:01;11.15;;;1.50;;
71771;SDS011;59606;52.138;5.424;2023-12-28T12:58:30;15.10;;;1.58;;
71771;SDS011;59606;52.138;5.424;2023-12-28T13:01:00;13.73;;;1.97;;
71771;SDS011;59606;52.138;5.424;2023-12-28T13:03:27;10.18;;;1.52;;
71771;SDS011;59606;52.138;5.424;2023-12-28T13:05:56;14.25;;;2.10;;
71771;SDS011;59606;52.138;5.424;2023-12-28T13:08:23;17.10;;;2.38;;
71771;SDS011;59606;52.138;5.424;2023-12-28T13:10:50;11.30;;;1.67;;
71771;SDS011;59606;52.138;5.424;2023-12-28T13:13:17;19.63;;;1.70;;
71771;SDS011;59606;52.138;5.424;2023-12-28T13:15:43;11.00;;;1.98;;
71771;SDS011;59606;52.138;5.424;2023-12-28T13:18:10;15.95;;;1.40;;
71771;SDS011;59606;52.138;5.424;2023-12-28T13:20:37;10.80;;;1.20;;
71771;SDS011;59606;52.138;5.424;2023-12-28T13:23:04;15.90;;;1.90;;
71771;SDS011;59606;52.138;5.424;2023-12-28T13:25:33;13.47;;;1.40;;
71771;SDS011;59606;52.138;5.424;2023-12-28T13:28:00;9.32;;;1.35;;
71771;SDS011;59606;52.138;5.424;2023-12-28T13:30:27;15.50;;;2.00;;
71771;SDS011;59606;52.138;5.424;2023-12-28T13:32:55;17.48;;;2.15;;
71771;SDS011;59606;52.138;5.424;2023-12-28T13:35:25;11.52;;;1.88;;
71771;SDS011;59606;52.138;5.424;2023-12-28T13:37:52;13.77;;;2.27;;
71771;SDS011;59606;52.138;5.424;2023-12-28T13:40:18;12.07;;;1.60;;
71771;SDS011;59606;52.138;5.424;2023-12-28T13:42:46;15.20;;;2.00;;
71771;SDS011;59606;52.138;5.424;2023-12-28T13:45:13;12.35;;;2.20;;
71771;SDS011;59606;52.138;5.424;2023-12-28T13:47:40;11.23;;;1.80;;
71771;SDS011;59606;52.138;5.424;2023-12-28T13:50:07;12.60;;;1.30;;
71771;SDS011;59606;52.138;5.424;2023-12-28T13:52:34;11.38;;;1.70;;
71771;SDS011;59606;52.138;5.424;2023-12-28T13:55:00;11.63;;;2.40;;
71771;SDS011;59606;52.138;5.424;2023-12-28T13:57:27;17.95;;;2.25;;
71771;SDS011;59606;52.138;5.424;2023-12-28T13:59:53;12.82;;;2.53;;
71771;SDS011;59606;52.138;5.424;2023-12-28T14:02:23;10.13;;;1.23;;
71771;SDS011;59606;52.138;5.424;2023-12-28T14:04:50;11.25;;;1.58;;
71771;SDS011;59606;52.138;5.424;2023-12-28T14:07:17;16.65;;;1.73;;
71771;SDS011;59606;52.138;5.424;2023-12-28T14:09:43;19.48;;;1.77;;
71771;SDS011;59606;52.138;5.424;2023-12-28T14:12:10;18.00;;;1.98;;
71771;SDS011;59606;52.138;5.424;2023-12-28T14:14:37;12.27;;;2.07;;
71771;SDS011;59606;52.138;5.424;2023-12-28T14:17:04;11.95;;;1.67;;
71771;SDS011;59606;52.138;5.424;2023-12-28T14:19:31;10.60;;;2.45;;
71771;SDS011;59606;52.138;5.424;2023-12-28T14:21:59;12.18;;;1.40;;
71771;SDS011;59606;52.138;5.424;2023-12-28T14:24:26;17.17;;;2.00;;
71771;SDS011;59606;52.138;5.424;2023-12-28T14:26:53;14.37;;;1.77;;
71771;SDS011;59606;52.138;5.424;2023-12-28T14:29:23;12.00;;;1.67;;
71771;SDS011;59606;52.138;5.424;2023-12-28T14:31:50;20.80;;;3.15;;
71771;SDS011;59606;52.138;5.424;2023-12-28T14:34:17;12.90;;;1.85;;
71771;SDS011;59606;52.138;5.424;2023-12-28T14:36:44;11.20;;;1.80;;
71771;SDS011;59606;52.138;5.424;2023-12-28T14:39:16;13.80;;;2.13;;
71771;SDS011;59606;52.138;5.424;2023-12-28T14:41:45;8.38;;;2.17;;
71771;SDS011;59606;52.138;5.424;2023-12-28T14:44:12;14.95;;;1.77;;
71771;SDS011;59606;52.138;5.424;2023-12-28T14:46:39;13.00;;;1.95;;
71771;SDS011;59606;52.138;5.424;2023-12-28T14:49:05;16.80;;;2.13;;